Moxie Gore Township, Maine
Current Conditions -  °F | °C
As of 5:15 AM on Monday 26 Jan 2015 (Local Time) from KWVL Reporting Station
Clear Clear  
Wind Chill: -8°   Ceiling: Unl
Heat Index:   Visibility: 10mi
Dew Point: -9°   Wind: 6mph
Humidity: 56%   Direction: 290°WNW
Pressure: 30.07"   Gusts: NA
Location:  45.3915°N, 69.9186°W
Report Text: KWVL 261015Z 29005KT 10SM CLR M16/M23 A3007 RMK AO1
Loading
Personal Weather Stations






























Interactive Weather Map New forecast layout! Learn more

10-Day Weather Forecast

Advertisements
Track Severe Weather on mobile